Time;durP1;ratioP1;P1;durP2;ratioP2;P2;SDS_P1;SDS_P2;PMS_P1;PMS_P2;Temp;Humidity;BMP_temperature;BMP_pressure;BME280_temperature;BME280_humidity;BME280_pressure;Samples;Min_cycle;Max_cycle;Signal;HPM_P1;HPM_P2
2023/05/18 04:01:00;;;;;;;1.00;1.00;;;9.10;99.90;;;;;;5659858;23;20248;-71
2023/05/18 04:03:27;;;;;;;1.60;1.00;;;9.10;99.90;;;;;;4964475;28;20563;-71
2023/05/18 04:05:54;;;;;;;0.50;0.50;;;9.10;99.90;;;;;;4965784;28;20240;-73
2023/05/18 04:08:24;;;;;;;0.35;0.35;;;9.10;99.90;;;;;;4965981;28;20580;-71
2023/05/18 04:10:51;;;;;;;0.50;0.50;;;9.20;99.90;;;;;;4965221;28;20331;-71
2023/05/18 04:13:18;;;;;;;2.60;0.70;;;9.00;99.90;;;;;;4961745;23;20287;-70
2023/05/18 04:15:47;;;;;;;2.22;2.13;;;9.00;99.90;;;;;;4971295;28;20223;-73
2023/05/18 04:18:17;;;;;;;1.38;1.38;;;9.00;99.90;;;;;;4961531;28;20208;-71
2023/05/18 04:20:44;;;;;;;0.65;0.65;;;8.90;99.90;;;;;;4964789;28;20213;-73
2023/05/18 04:23:11;;;;;;;0.70;0.70;;;9.00;99.90;;;;;;4970067;28;20228;-74
2023/05/18 04:25:40;;;;;;;1.17;0.50;;;9.10;99.90;;;;;;4945610;28;20245;-72
2023/05/18 04:28:08;;;;;;;4.00;0.85;;;9.10;99.90;;;;;;4950736;28;20236;-73
2023/05/18 04:30:37;;;;;;;2.70;1.35;;;9.10;99.90;;;;;;4948341;28;20217;-72
2023/05/18 04:33:05;;;;;;;1.05;1.00;;;9.20;99.90;;;;;;4952584;28;20270;-73
2023/05/18 04:35:33;;;;;;;7.22;1.20;;;9.20;99.90;;;;;;4948501;28;20577;-73
2023/05/18 04:38:02;;;;;;;0.85;0.85;;;9.30;99.90;;;;;;4951692;28;20701;-73
2023/05/18 04:40:32;;;;;;;1.85;1.00;;;9.20;99.90;;;;;;4948633;28;20241;-73
2023/05/18 04:42:59;;;;;;;3.40;0.63;;;9.30;99.90;;;;;;4958980;28;20220;-73
2023/05/18 04:45:27;;;;;;;9.95;1.20;;;9.30;99.90;;;;;;4959401;28;20557;-72
2023/05/18 04:47:57;;;;;;;1.08;1.08;;;9.40;99.90;;;;;;4954070;28;20621;-73
2023/05/18 04:50:24;;;;;;;0.50;0.50;;;9.40;99.90;;;;;;4948119;29;20244;-73
2023/05/18 04:52:56;;;;;;;0.50;0.50;;;9.40;99.90;;;;;;4949630;28;20231;-71
2023/05/18 04:55:26;;;;;;;1.85;0.82;;;9.40;99.90;;;;;;4944966;28;20273;-73
2023/05/18 04:57:56;;;;;;;3.60;0.95;;;9.40;99.90;;;;;;4947840;28;20197;-73
2023/05/18 05:00:24;;;;;;;0.90;0.85;;;9.30;99.90;;;;;;4946144;28;20296;-72
2023/05/18 05:02:51;;;;;;;1.52;0.70;;;9.40;99.90;;;;;;4942840;28;20716;-72
2023/05/18 05:05:18;;;;;;;0.95;0.80;;;9.40;99.90;;;;;;4939678;28;20225;-73
2023/05/18 05:07:45;;;;;;;1.20;1.17;;;9.50;99.90;;;;;;4947407;28;20209;-73
2023/05/18 05:10:13;;;;;;;0.52;0.52;;;9.60;99.90;;;;;;4943993;28;20214;-71
2023/05/18 05:12:41;;;;;;;1.85;0.60;;;9.60;99.90;;;;;;4956747;28;20624;-73
2023/05/18 05:15:10;;;;;;;3.83;0.82;;;9.60;99.90;;;;;;4956167;28;20215;-73
2023/05/18 05:17:37;;;;;;;0.85;0.85;;;9.60;99.90;;;;;;4959155;28;20206;-73
2023/05/18 05:20:04;;;;;;;1.05;1.05;;;9.70;99.90;;;;;;4942086;29;20301;-73
2023/05/18 05:22:31;;;;;;;0.63;0.63;;;9.70;99.90;;;;;;4950769;28;20213;-73
2023/05/18 05:24:58;;;;;;;0.73;0.73;;;9.60;99.90;;;;;;4948736;28;20229;-73
2023/05/18 05:27:26;;;;;;;0.60;0.60;;;9.60;99.90;;;;;;4944552;28;20663;-74
2023/05/18 05:29:53;;;;;;;4.45;1.55;;;9.50;99.90;;;;;;4954962;28;20224;-73
2023/05/18 05:32:20;;;;;;;0.40;0.40;;;9.60;99.90;;;;;;4941157;28;20209;-72
2023/05/18 05:34:49;;;;;;;1.85;0.38;;;9.60;99.90;;;;;;4949362;28;20228;-73
2023/05/18 05:37:16;;;;;;;0.88;0.88;;;9.60;99.90;;;;;;4950801;28;20206;-73
2023/05/18 05:39:44;;;;;;;0.63;0.50;;;9.70;99.90;;;;;;4946627;28;20236;-73
2023/05/18 05:42:11;;;;;;;2.85;1.63;;;9.70;99.90;;;;;;4949461;28;20225;-73
2023/05/18 05:44:40;;;;;;;1.67;0.68;;;9.80;99.90;;;;;;4946921;28;20244;-73
2023/05/18 05:47:07;;;;;;;0.35;0.35;;;9.90;99.90;;;;;;4946139;28;20213;-73
2023/05/18 05:49:35;;;;;;;1.42;1.38;;;10.00;99.90;;;;;;4944082;28;20213;-72
2023/05/18 05:52:02;;;;;;;0.82;0.60;;;10.00;99.90;;;;;;4947907;29;20209;-72
2023/05/18 05:54:30;;;;;;;0.70;0.70;;;10.20;99.90;;;;;;4950012;28;20228;-73
2023/05/18 05:56:56;;;;;;;0.70;0.70;;;10.20;99.90;;;;;;4960619;28;20297;-71
2023/05/18 05:59:24;;;;;;;0.52;0.52;;;10.20;99.90;;;;;;4948081;28;20225;-72
2023/05/18 06:01:52;;;;;;;0.28;0.28;;;10.20;99.90;;;;;;4937213;29;20209;-72
2023/05/18 06:04:19;;;;;;;1.55;0.40;;;10.30;99.90;;;;;;4938231;28;20237;-73
2023/05/18 06:06:48;;;;;;;1.85;0.77;;;10.30;99.90;;;;;;4950766;28;20228;-72
2023/05/18 06:09:15;;;;;;;1.48;1.10;;;10.30;99.90;;;;;;4958893;28;20275;-71
2023/05/18 06:11:43;;;;;;;0.40;0.40;;;10.40;99.90;;;;;;4962984;28;20279;-72
2023/05/18 06:14:10;;;;;;;4.70;0.45;;;10.30;99.90;;;;;;4946986;28;20236;-74
2023/05/18 06:16:37;;;;;;;0.88;0.82;;;10.20;99.90;;;;;;4952812;28;20202;-70
2023/05/18 06:19:06;;;;;;;0.43;0.43;;;10.40;99.90;;;;;;4941022;28;20205;-72
2023/05/18 06:21:33;;;;;;;1.00;1.00;;;10.80;99.90;;;;;;4966181;28;20211;-72
2023/05/18 06:24:00;;;;;;;1.17;1.07;;;11.70;99.90;;;;;;4942299;28;20589;-71
2023/05/18 06:26:27;;;;;;;0.40;0.40;;;12.80;99.90;;;;;;4951340;28;20501;-68
2023/05/18 06:28:54;;;;;;;0.87;0.30;;;13.70;99.90;;;;;;4941523;28;20478;-72
2023/05/18 06:31:22;;;;;;;0.83;0.57;;;14.10;99.90;;;;;;4943008;28;20501;-71
2023/05/18 06:33:49;;;;;;;0.40;0.40;;;14.50;99.90;;;;;;4939101;28;20501;-72
2023/05/18 06:36:17;;;;;;;1.17;0.83;;;14.60;99.90;;;;;;4944209;28;20492;-72
2023/05/18 06:38:44;;;;;;;2.00;0.77;;;15.00;99.60;;;;;;4942528;29;20480;-72
2023/05/18 06:41:11;;;;;;;0.40;0.40;;;14.60;98.70;;;;;;4945763;28;20522;-72
2023/05/18 06:43:38;;;;;;;0.40;0.40;;;14.90;98.80;;;;;;4942872;28;20492;-71
2023/05/18 06:46:06;;;;;;;0.30;0.30;;;15.60;98.40;;;;;;4946120;28;20499;-72
2023/05/18 06:48:34;;;;;;;2.00;0.60;;;15.40;97.00;;;;;;4950113;28;20527;-72
2023/05/18 06:51:01;;;;;;;0.60;0.60;;;15.50;97.30;;;;;;4954352;28;20523;-72
2023/05/18 06:53:30;;;;;;;4.43;0.60;;;14.90;97.10;;;;;;4939960;28;20555;-72
2023/05/18 06:55:57;;;;;;;3.40;1.30;;;14.70;97.50;;;;;;4942108;28;20476;-72
2023/05/18 06:58:24;;;;;;;0.60;0.60;;;14.60;97.30;;;;;;4946683;28;20527;-72
2023/05/18 07:00:52;;;;;;;0.50;0.50;;;14.80;97.00;;;;;;4948148;28;20478;-73
2023/05/18 07:03:19;;;;;;;2.77;0.97;;;14.80;96.50;;;;;;4942418;28;20496;-74
2023/05/18 07:05:46;;;;;;;0.83;0.83;;;14.70;96.90;;;;;;4937830;28;20856;-72
2023/05/18 07:08:13;;;;;;;2.93;0.67;;;15.70;96.40;;;;;;4941974;28;20588;-72
2023/05/18 07:10:42;;;;;;;1.40;0.43;;;16.10;95.60;;;;;;4948261;28;20472;-71
2023/05/18 07:13:09;;;;;;;0.50;0.50;;;16.70;94.80;;;;;;4937587;28;20537;-72
2023/05/18 07:15:36;;;;;;;0.90;0.90;;;16.80;93.60;;;;;;4941591;28;20497;-72
2023/05/18 07:18:03;;;;;;;0.60;0.60;;;16.30;93.40;;;;;;4943317;28;20569;-71
2023/05/18 07:20:30;;;;;;;0.70;0.50;;;15.70;93.80;;;;;;4954836;28;20474;-72
2023/05/18 07:22:57;;;;;;;0.40;0.40;;;15.30;94.30;;;;;;4948117;28;20961;-71
2023/05/18 07:25:25;;;;;;;0.70;0.60;;;14.90;95.10;;;;;;4948427;28;20982;-71
2023/05/18 07:27:53;;;;;;;0.70;0.70;;;14.70;94.60;;;;;;4945190;28;20470;-72
2023/05/18 07:30:20;;;;;;;0.80;0.77;;;14.40;94.90;;;;;;4948711;28;20480;-72
2023/05/18 07:32:47;;;;;;;2.93;1.13;;;14.10;95.70;;;;;;4940318;29;20468;-72
2023/05/18 07:35:18;;;;;;;2.37;1.10;;;13.80;96.20;;;;;;4934076;29;20472;-71
2023/05/18 07:37:44;;;;;;;3.03;0.97;;;13.60;96.20;;;;;;4931840;29;20465;-72
2023/05/18 07:40:12;;;;;;;4.33;1.23;;;13.20;96.80;;;;;;4935274;29;20476;-72
2023/05/18 07:42:39;;;;;;;0.43;0.43;;;13.00;97.00;;;;;;4940870;29;20470;-72
2023/05/18 07:45:09;;;;;;;0.43;0.43;;;12.90;97.40;;;;;;4942829;29;20474;-72
2023/05/18 07:47:36;;;;;;;1.27;0.60;;;12.90;97.90;;;;;;4947119;29;20510;-72
2023/05/18 07:50:03;;;;;;;0.83;0.83;;;13.00;97.40;;;;;;4943638;29;20480;-72
2023/05/18 07:52:30;;;;;;;1.07;0.40;;;13.00;98.00;;;;;;4944871;29;20480;-71
2023/05/18 07:54:57;;;;;;;0.30;0.30;;;13.10;97.70;;;;;;4942394;28;20524;-72
2023/05/18 07:57:24;;;;;;;0.33;0.33;;;13.00;97.50;;;;;;4933015;29;20461;-72
2023/05/18 07:59:51;;;;;;;0.57;0.57;;;13.00;97.30;;;;;;4945306;29;20470;-72
2023/05/18 08:02:21;;;;;;;0.60;0.47;;;12.80;97.80;;;;;;4944618;29;20477;-72
2023/05/18 08:04:55;;;;;;;0.97;0.60;;;12.80;98.00;;;;;;4933010;29;20898;-72
2023/05/18 08:07:25;;;;;;;6.10;1.27;;;12.80;98.10;;;;;;4942673;29;20492;-72
2023/05/18 08:09:51;;;;;;;1.80;1.07;;;13.00;98.40;;;;;;4932023;29;21120;-72
2023/05/18 08:12:18;;;;;;;0.30;0.30;;;13.50;98.30;;;;;;4939173;29;20547;-72
2023/05/18 08:14:45;;;;;;;0.50;0.50;;;14.00;97.30;;;;;;4941126;29;20505;-72
2023/05/18 08:17:11;;;;;;;0.70;0.70;;;14.00;97.10;;;;;;4932368;28;20470;-72
2023/05/18 08:19:40;;;;;;;1.37;0.83;;;13.80;97.50;;;;;;4935041;29;20502;-72
2023/05/18 08:22:07;;;;;;;2.67;1.00;;;13.80;97.70;;;;;;4937411;29;20564;-71
2023/05/18 08:24:33;;;;;;;0.93;0.93;;;13.60;97.30;;;;;;4945298;29;20518;-71
2023/05/18 08:27:02;;;;;;;0.90;0.90;;;13.40;96.90;;;;;;4944539;29;20519;-71
2023/05/18 08:29:28;;;;;;;3.90;0.97;;;13.40;97.00;;;;;;4945661;29;20991;-72
2023/05/18 08:31:55;;;;;;;0.70;0.70;;;13.00;97.40;;;;;;4934945;29;20472;-71
2023/05/18 08:34:22;;;;;;;0.80;0.77;;;13.10;98.20;;;;;;4933714;29;20469;-72
2023/05/18 08:36:51;;;;;;;0.60;0.60;;;13.20;98.10;;;;;;4939791;29;20215;-71
2023/05/18 08:39:18;;;;;;;0.70;0.70;;;12.80;97.70;;;;;;4938411;29;20476;-71
2023/05/18 08:41:55;;;;;;;0.70;0.60;;;12.60;98.20;;;;;;4947086;29;20481;-71
2023/05/18 08:44:25;;;;;;;0.50;0.50;;;12.50;98.40;;;;;;4931920;29;20569;-71
2023/05/18 08:46:52;;;;;;;1.30;0.83;;;12.50;99.10;;;;;;4935475;29;20491;-72
2023/05/18 08:49:23;;;;;;;0.50;0.50;;;12.40;99.30;;;;;;4948282;29;20757;-71
2023/05/18 08:51:56;;;;;;;3.77;0.73;;;12.40;99.70;;;;;;4952397;28;20980;-70
2023/05/18 08:54:23;;;;;;;0.47;0.47;;;12.30;99.30;;;;;;4942724;29;20758;-72
2023/05/18 08:56:52;;;;;;;0.70;0.57;;;12.00;99.90;;;;;;4942438;29;20939;-72
2023/05/18 08:59:24;;;;;;;1.00;1.00;;;12.10;99.90;;;;;;4950432;29;20470;-72
2023/05/18 09:01:51;;;;;;;2.15;1.25;;;12.20;99.90;;;;;;4939453;29;20469;-72
2023/05/18 09:04:22;;;;;;;1.40;1.30;;;12.30;99.90;;;;;;4940426;29;20273;-73
2023/05/18 09:06:53;;;;;;;1.83;1.23;;;12.50;99.90;;;;;;4942264;28;20544;-73
2023/05/18 09:09:22;;;;;;;0.50;0.50;;;12.70;99.90;;;;;;4946790;29;20219;-72
2023/05/18 09:11:50;;;;;;;0.40;0.40;;;12.70;99.30;;;;;;4941602;29;20483;-72
2023/05/18 09:14:16;;;;;;;0.50;0.50;;;12.80;98.90;;;;;;4948588;29;20244;-72
2023/05/18 09:16:44;;;;;;;2.67;1.23;;;13.10;99.10;;;;;;4944464;29;20480;-72
2023/05/18 09:19:10;;;;;;;1.50;1.50;;;13.30;99.00;;;;;;4942306;29;20598;-72
2023/05/18 09:21:39;;;;;;;2.13;0.87;;;13.20;98.60;;;;;;4937814;29;20476;-72
2023/05/18 09:24:06;;;;;;;0.60;0.60;;;13.10;98.60;;;;;;4940284;29;20526;-72
2023/05/18 09:26:34;;;;;;;0.70;0.70;;;12.90;98.60;;;;;;4934347;29;21080;-72
2023/05/18 09:29:01;;;;;;;0.80;0.80;;;12.80;98.70;;;;;;4945472;29;20466;-72
2023/05/18 09:31:30;;;;;;;0.50;0.50;;;12.90;98.90;;;;;;4939132;29;20513;-72
2023/05/18 09:33:59;;;;;;;4.17;1.80;;;12.70;98.90;;;;;;4937921;29;20496;-72
2023/05/18 09:36:27;;;;;;;0.80;0.80;;;12.50;99.70;;;;;;4945567;29;20519;-72
2023/05/18 09:38:54;;;;;;;1.47;0.80;;;12.50;99.90;;;;;;4944922;29;20978;-72
2023/05/18 09:41:21;;;;;;;11.83;0.90;;;12.80;99.60;;;;;;4937283;29;20859;-71
2023/05/18 09:43:51;;;;;;;0.70;0.70;;;12.60;98.60;;;;;;4944481;29;20492;-72
2023/05/18 09:46:19;;;;;;;0.60;0.60;;;12.50;98.90;;;;;;4947316;29;20912;-72
2023/05/18 09:48:48;;;;;;;0.40;0.40;;;12.40;99.40;;;;;;4943563;29;20216;-72
2023/05/18 09:51:16;;;;;;;1.50;0.97;;;12.40;98.80;;;;;;4940379;29;20478;-71
2023/05/18 09:53:47;;;;;;;2.70;0.67;;;12.50;98.90;;;;;;4938888;29;20856;-71
2023/05/18 09:56:18;;;;;;;2.13;1.20;;;12.70;98.80;;;;;;4943253;29;20782;-69
2023/05/18 09:58:45;;;;;;;6.03;1.00;;;12.70;99.00;;;;;;4941678;28;20553;-70
2023/05/18 10:01:13;;;;;;;7.83;0.77;;;12.80;99.10;;;;;;4940360;29;20988;-69
2023/05/18 10:03:40;;;;;;;0.70;0.70;;;12.90;98.40;;;;;;4933694;29;20492;-69
2023/05/18 10:06:08;;;;;;;1.60;1.43;;;13.00;98.20;;;;;;4945670;29;20844;-70
2023/05/18 10:08:35;;;;;;;0.63;0.63;;;13.20;98.20;;;;;;4937004;29;20476;-69
2023/05/18 10:11:02;;;;;;;0.73;0.73;;;13.30;98.30;;;;;;4949113;29;20471;-71
2023/05/18 10:13:30;;;;;;;0.80;0.80;;;13.40;99.20;;;;;;4936888;29;20501;-68
2023/05/18 10:15:59;;;;;;;5.50;0.90;;;13.50;98.30;;;;;;4946255;29;20572;-69
2023/05/18 10:18:28;;;;;;;0.70;0.70;;;13.40;98.20;;;;;;4940682;29;20496;-70
2023/05/18 10:20:57;;;;;;;2.53;0.80;;;13.50;98.20;;;;;;4945735;29;20935;-70
2023/05/18 10:23:25;;;;;;;3.70;1.37;;;13.60;98.20;;;;;;4948540;29;20493;-70
2023/05/18 10:25:53;;;;;;;0.87;0.87;;;13.30;98.30;;;;;;4941786;28;20935;-71
2023/05/18 10:28:24;;;;;;;1.70;0.70;;;12.90;98.10;;;;;;4939594;29;20470;-71
2023/05/18 10:30:53;;;;;;;4.10;1.33;;;12.80;99.00;;;;;;4939725;29;20461;-70
2023/05/18 10:33:20;;;;;;;0.70;0.70;;;13.00;98.60;;;;;;4947798;29;20553;-71
2023/05/18 10:35:49;;;;;;;1.50;1.40;;;13.00;98.70;;;;;;4939687;29;20465;-71
2023/05/18 10:38:19;;;;;;;7.77;1.07;;;12.90;98.30;;;;;;4940793;29;20469;-71
2023/05/18 10:40:48;;;;;;;2.17;0.80;;;13.00;98.90;;;;;;4941402;29;20540;-71
2023/05/18 10:43:18;;;;;;;7.67;0.83;;;13.00;98.50;;;;;;4932794;29;20492;-71
2023/05/18 10:45:47;;;;;;;1.90;0.63;;;13.00;98.30;;;;;;4937207;29;20465;-72
2023/05/18 10:48:15;;;;;;;9.10;1.83;;;13.10;98.10;;;;;;4943922;29;20599;-71
2023/05/18 10:50:42;;;;;;;2.43;0.70;;;13.30;98.60;;;;;;4943275;29;20992;-71
2023/05/18 10:53:13;;;;;;;1.03;1.03;;;13.30;98.30;;;;;;4935797;29;20497;-71
2023/05/18 10:55:39;;;;;;;1.60;0.63;;;13.40;99.00;;;;;;4944456;29;20611;-71
2023/05/18 10:58:12;;;;;;;1.17;1.17;;;13.30;99.40;;;;;;4945100;29;20973;-71
2023/05/18 11:00:42;;;;;;;6.63;1.67;;;13.40;99.30;;;;;;4932955;29;20581;-71
2023/05/18 11:03:12;;;;;;;1.90;1.10;;;13.30;98.80;;;;;;4940661;29;21431;-73
2023/05/18 11:05:40;;;;;;;1.27;1.27;;;13.40;99.00;;;;;;4946881;29;20469;-72
2023/05/18 11:08:07;;;;;;;0.73;0.73;;;13.60;99.60;;;;;;4944093;29;20488;-74
2023/05/18 11:10:39;;;;;;;3.50;1.17;;;13.60;99.30;;;;;;4939865;28;20473;-72
2023/05/18 11:13:06;;;;;;;1.80;1.10;;;13.50;98.80;;;;;;4944778;29;21257;-73
2023/05/18 11:16:05;;;;;;;2.43;0.70;;;13.50;99.70;;;;;;4951039;29;20473;-73
2023/05/18 11:18:40;;;;;;;2.43;1.43;;;13.70;99.40;;;;;;4941418;29;20468;-73
2023/05/18 11:21:28;;;;;;;0.33;0.33;;;13.90;98.50;;;;;;4942852;29;20471;-73
2023/05/18 11:24:20;;;;;;;2.53;0.53;;;13.90;98.70;;;;;;4935390;29;20556;-71
2023/05/18 11:26:49;;;;;;;0.97;0.50;;;13.90;98.10;;;;;;4923736;28;20849;-71
2023/05/18 11:29:18;;;;;;;0.70;0.70;;;13.80;98.40;;;;;;4951295;29;20472;-71
2023/05/18 11:31:45;;;;;;;3.50;0.90;;;13.80;98.30;;;;;;4942498;29;20849;-72
2023/05/18 11:34:39;;;;;;;2.43;1.53;;;13.80;98.40;;;;;;4932448;29;20485;-72
2023/05/18 11:37:08;;;;;;;1.10;0.93;;;13.90;98.40;;;;;;4931588;29;20470;-72
2023/05/18 11:39:35;;;;;;;0.80;0.80;;;13.90;98.20;;;;;;4944071;29;20468;-71
2023/05/18 11:42:07;;;;;;;4.50;1.53;;;13.80;98.80;;;;;;4941526;29;20484;-72
2023/05/18 11:44:33;;;;;;;1.30;1.20;;;13.90;98.90;;;;;;4943785;29;20495;-71
2023/05/18 11:47:02;;;;;;;2.97;1.53;;;14.00;99.20;;;;;;4939617;29;20493;-71
2023/05/18 11:49:31;;;;;;;0.40;0.40;;;14.10;98.50;;;;;;4942672;29;20473;-72
2023/05/18 11:52:03;;;;;;;2.83;1.07;;;14.20;98.20;;;;;;4935779;29;20469;-72
2023/05/18 11:54:35;;;;;;;0.60;0.60;;;14.30;98.10;;;;;;4934667;29;20511;-71
2023/05/18 11:57:03;;;;;;;2.47;0.80;;;14.30;97.90;;;;;;4931870;29;20480;-72
2023/05/18 11:59:31;;;;;;;0.87;0.80;;;14.40;98.20;;;;;;4931800;29;20476;-72
2023/05/18 12:02:00;;;;;;;0.87;0.87;;;14.50;96.50;;;;;;4937587;29;20480;-72
2023/05/18 12:04:28;;;;;;;1.70;0.80;;;14.50;96.30;;;;;;4938985;29;20504;-72
2023/05/18 12:06:57;;;;;;;1.00;0.60;;;14.80;95.80;;;;;;4939271;29;20584;-72
2023/05/18 12:09:24;;;;;;;0.77;0.77;;;14.80;95.40;;;;;;4938207;29;20469;-72
2023/05/18 12:11:51;;;;;;;0.97;0.97;;;14.70;95.70;;;;;;4931943;29;20974;-72
2023/05/18 12:14:21;;;;;;;0.97;0.60;;;14.60;96.10;;;;;;4939596;29;20496;-72
2023/05/18 12:16:49;;;;;;;2.13;0.90;;;14.60;95.10;;;;;;4935300;29;20891;-72
2023/05/18 12:19:18;;;;;;;0.80;0.80;;;14.60;96.00;;;;;;4941562;29;20535;-72
2023/05/18 12:21:45;;;;;;;2.43;1.10;;;14.70;95.80;;;;;;4942711;29;20492;-71
2023/05/18 12:24:12;;;;;;;1.70;1.07;;;14.70;95.60;;;;;;4945973;29;20492;-72
2023/05/18 12:26:39;;;;;;;0.70;0.50;;;14.80;96.30;;;;;;4952084;29;20501;-71
2023/05/18 12:29:06;;;;;;;0.43;0.43;;;14.70;95.80;;;;;;4944107;29;20780;-72
2023/05/18 12:31:34;;;;;;;1.70;0.70;;;14.90;96.20;;;;;;4936417;29;20469;-72
2023/05/18 12:34:02;;;;;;;0.70;0.70;;;15.00;95.70;;;;;;4945295;29;20496;-72
2023/05/18 12:36:29;;;;;;;0.90;0.90;;;15.20;95.80;;;;;;4938659;29;20473;-72
2023/05/18 12:38:56;;;;;;;0.50;0.50;;;15.00;96.20;;;;;;4934944;29;20470;-72
2023/05/18 12:41:23;;;;;;;1.90;1.00;;;15.10;95.90;;;;;;4951049;29;20468;-72
2023/05/18 12:43:53;;;;;;;2.73;0.80;;;15.20;95.90;;;;;;4942789;29;20493;-72
2023/05/18 12:46:21;;;;;;;1.50;1.00;;;15.40;96.30;;;;;;4949011;29;20874;-72
2023/05/18 12:48:56;;;;;;;0.67;0.67;;;15.50;96.30;;;;;;4939239;28;20517;-72
2023/05/18 12:51:24;;;;;;;1.10;1.10;;;15.60;96.00;;;;;;4942694;29;20465;-71
2023/05/18 12:53:50;;;;;;;0.60;0.60;;;15.70;95.60;;;;;;4945089;29;20520;-71
2023/05/18 12:56:17;;;;;;;1.17;1.07;;;15.60;95.60;;;;;;4941561;29;20477;-71
2023/05/18 12:58:56;;;;;;;0.57;0.57;;;15.50;95.10;;;;;;4937905;29;20908;-70
2023/05/18 13:01:23;;;;;;;1.00;1.00;;;15.30;95.90;;;;;;4935461;29;20500;-71
2023/05/18 13:03:56;;;;;;;0.73;0.73;;;15.20;96.50;;;;;;4934876;29;20489;-71
2023/05/18 13:06:22;;;;;;;0.67;0.67;;;15.40;96.10;;;;;;4934875;29;20759;-72
2023/05/18 13:08:53;;;;;;;1.90;0.80;;;15.40;95.30;;;;;;4934544;29;20520;-71
2023/05/18 13:11:23;;;;;;;1.27;1.17;;;15.60;95.40;;;;;;4935343;29;20560;-71
2023/05/18 13:14:02;;;;;;;0.73;0.73;;;15.70;94.90;;;;;;4943817;29;20508;-71
2023/05/18 13:16:31;;;;;;;0.67;0.67;;;15.60;94.30;;;;;;4938761;29;20813;-71
2023/05/18 13:19:19;;;;;;;1.03;1.03;;;15.40;94.40;;;;;;4952685;29;20471;-71
2023/05/18 13:21:55;;;;;;;0.43;0.43;;;15.30;94.60;;;;;;4936657;29;20461;-71
2023/05/18 13:24:22;;;;;;;3.03;1.13;;;15.30;95.70;;;;;;4933032;29;20525;-71
2023/05/18 13:26:52;;;;;;;3.70;1.53;;;15.50;95.40;;;;;;4934729;29;20516;-71
2023/05/18 13:29:22;;;;;;;0.60;0.60;;;15.50;94.70;;;;;;4934337;29;20553;-71
2023/05/18 13:31:49;;;;;;;0.93;0.93;;;15.60;94.60;;;;;;4935224;29;20465;-71
2023/05/18 13:34:27;;;;;;;0.90;0.90;;;15.60;94.30;;;;;;4952366;29;20512;-71
2023/05/18 13:36:57;;;;;;;1.23;0.73;;;15.80;94.60;;;;;;4951742;29;20468;-71
2023/05/18 13:39:30;;;;;;;3.33;0.90;;;16.00;94.40;;;;;;4935846;29;20983;-71
2023/05/18 13:42:03;;;;;;;0.67;0.67;;;15.90;93.90;;;;;;4947047;29;20545;-71
2023/05/18 13:44:41;;;;;;;1.00;1.00;;;15.90;94.00;;;;;;4942517;29;20563;-71
2023/05/18 13:47:20;;;;;;;1.60;1.07;;;15.80;92.70;;;;;;4935426;29;20484;-71
2023/05/18 13:49:57;;;;;;;1.07;0.70;;;15.60;93.40;;;;;;4938578;29;20475;-70
2023/05/18 13:52:23;;;;;;;0.70;0.70;;;15.80;93.70;;;;;;4938186;29;20552;-71
2023/05/18 13:54:50;;;;;;;2.87;1.13;;;15.90;93.00;;;;;;4944531;29;20496;-71
2023/05/18 13:57:17;;;;;;;0.47;0.47;;;16.00;92.90;;;;;;4946416;29;20527;-71
2023/05/18 13:59:43;;;;;;;0.37;0.37;;;15.90;92.20;;;;;;4938374;29;20473;-72
2023/05/18 14:02:10;;;;;;;0.70;0.70;;;15.90;92.60;;;;;;4941201;29;20469;-71
2023/05/18 14:04:37;;;;;;;0.30;0.30;;;16.00;92.70;;;;;;4947218;29;20488;-70
2023/05/18 14:07:05;;;;;;;3.67;0.77;;;16.20;92.60;;;;;;4934353;29;20478;-70
2023/05/18 14:09:31;;;;;;;1.13;0.60;;;16.30;93.10;;;;;;4951398;28;20477;-70
2023/05/18 14:11:58;;;;;;;0.63;0.63;;;16.30;93.00;;;;;;4943541;29;20475;-70
2023/05/18 14:14:25;;;;;;;6.87;0.80;;;16.40;93.40;;;;;;4952453;29;20496;-71
2023/05/18 14:16:52;;;;;;;0.43;0.43;;;16.50;92.50;;;;;;4952636;29;20468;-71
2023/05/18 14:19:18;;;;;;;2.33;0.93;;;16.60;91.90;;;;;;4945407;29;20468;-71
2023/05/18 14:21:45;;;;;;;0.77;0.77;;;16.40;92.10;;;;;;4941721;29;20476;-71
2023/05/18 14:24:14;;;;;;;0.60;0.60;;;16.30;92.50;;;;;;4937931;29;20890;-71
2023/05/18 14:26:40;;;;;;;1.53;0.70;;;16.10;92.50;;;;;;4943277;29;20481;-71
2023/05/18 14:29:07;;;;;;;0.60;0.60;;;16.20;92.60;;;;;;4940174;29;20488;-71
2023/05/18 14:31:34;;;;;;;2.57;0.80;;;16.40;92.70;;;;;;4941767;29;20474;-71
2023/05/18 14:34:01;;;;;;;0.77;0.77;;;16.50;92.10;;;;;;4946566;29;20516;-71
2023/05/18 14:36:27;;;;;;;5.80;1.23;;;16.60;92.10;;;;;;4944940;29;20472;-71
2023/05/18 14:38:54;;;;;;;0.50;0.50;;;16.50;91.50;;;;;;4936260;29;20466;-71
2023/05/18 14:41:22;;;;;;;0.80;0.80;;;16.40;92.50;;;;;;4940605;29;20470;-71
2023/05/18 14:43:49;;;;;;;0.80;0.77;;;16.50;93.30;;;;;;4951707;28;20489;-71
2023/05/18 14:46:16;;;;;;;3.83;1.67;;;16.40;92.00;;;;;;4943437;28;20472;-70
2023/05/18 14:48:43;;;;;;;17.87;1.13;;;16.40;92.40;;;;;;4936551;29;20500;-70
2023/05/18 14:51:10;;;;;;;0.60;0.60;;;16.40;92.70;;;;;;4946806;29;20465;-70
2023/05/18 14:53:36;;;;;;;1.23;1.13;;;16.40;92.00;;;;;;4931737;29;20831;-70
2023/05/18 14:56:07;;;;;;;8.57;0.60;;;16.40;92.50;;;;;;4933622;29;20474;-70
2023/05/18 14:58:36;;;;;;;0.40;0.40;;;16.50;92.80;;;;;;4938868;29;20508;-70
2023/05/18 15:01:03;;;;;;;2.20;2.20;;;16.60;92.80;;;;;;4937484;29;20473;-70
2023/05/18 15:03:29;;;;;;;1.80;1.20;;;16.60;93.60;;;;;;4944461;29;20488;-70
2023/05/18 15:05:56;;;;;;;0.90;0.90;;;16.60;93.30;;;;;;4937713;29;20472;-70
2023/05/18 15:08:23;;;;;;;3.17;1.03;;;16.60;93.60;;;;;;4950880;29;20547;-70
2023/05/18 15:10:50;;;;;;;0.63;0.63;;;16.70;93.30;;;;;;4944063;29;20471;-70
2023/05/18 15:13:17;;;;;;;6.00;0.87;;;16.50;93.00;;;;;;4949540;29;20535;-70
2023/05/18 15:15:45;;;;;;;1.07;0.40;;;16.40;92.90;;;;;;4944934;29;20472;-70
2023/05/18 15:18:11;;;;;;;1.17;1.07;;;16.40;93.30;;;;;;4938548;29;20474;-70
2023/05/18 15:20:41;;;;;;;3.30;1.30;;;16.20;93.70;;;;;;4941550;29;20478;-70
2023/05/18 15:23:07;;;;;;;0.73;0.73;;;16.20;93.60;;;;;;4938351;29;20609;-70
2023/05/18 15:25:34;;;;;;;0.80;0.80;;;16.30;94.50;;;;;;4940772;29;20483;-70
2023/05/18 15:28:01;;;;;;;0.40;0.40;;;16.30;93.80;;;;;;4946799;29;20481;-71
2023/05/18 15:30:28;;;;;;;0.97;0.90;;;16.40;93.90;;;;;;4945224;29;20838;-70
2023/05/18 15:32:56;;;;;;;0.73;0.73;;;16.50;94.60;;;;;;4939655;29;20532;-73
2023/05/18 15:35:23;;;;;;;0.40;0.40;;;16.60;94.90;;;;;;4938889;29;20511;-71
2023/05/18 15:37:50;;;;;;;1.00;1.00;;;16.70;94.10;;;;;;4940700;29;20466;-70
2023/05/18 15:40:17;;;;;;;0.87;0.87;;;16.80;94.90;;;;;;4944962;29;20479;-70
2023/05/18 15:42:44;;;;;;;0.97;0.97;;;16.80;94.30;;;;;;4942740;29;20480;-70
2023/05/18 15:45:12;;;;;;;2.07;0.73;;;16.90;94.60;;;;;;4936775;29;20468;-70
2023/05/18 15:47:38;;;;;;;0.93;0.63;;;17.00;94.70;;;;;;4942657;29;21059;-70
2023/05/18 15:50:07;;;;;;;0.70;0.70;;;17.00;94.30;;;;;;4939014;29;20477;-71
2023/05/18 15:52:34;;;;;;;1.00;1.00;;;17.00;94.40;;;;;;4939533;29;21337;-71
2023/05/18 15:55:01;;;;;;;0.70;0.70;;;17.10;94.30;;;;;;4938089;29;20496;-70
2023/05/18 15:57:28;;;;;;;1.13;1.13;;;17.10;93.90;;;;;;4940107;29;20946;-71
2023/05/18 15:59:54;;;;;;;1.37;0.87;;;16.80;94.70;;;;;;4944686;29;20469;-70
2023/05/18 16:02:21;;;;;;;3.47;0.83;;;16.80;94.50;;;;;;4931671;29;20478;-70
2023/05/18 16:04:48;;;;;;;3.03;1.20;;;16.70;94.30;;;;;;4938384;29;20849;-71
2023/05/18 16:07:16;;;;;;;0.67;0.67;;;16.70;95.00;;;;;;4936148;29;20474;-70
2023/05/18 16:09:43;;;;;;;5.83;1.00;;;16.90;95.10;;;;;;4930629;29;20493;-70
2023/05/18 16:12:10;;;;;;;0.70;0.70;;;16.80;94.90;;;;;;4941360;29;20469;-70
2023/05/18 16:14:36;;;;;;;2.50;0.73;;;16.80;95.20;;;;;;4963719;23;20832;-70
2023/05/18 16:17:03;;;;;;;0.63;0.63;;;16.80;95.30;;;;;;4983258;28;20490;-71
2023/05/18 16:19:32;;;;;;;0.63;0.63;;;16.70;94.90;;;;;;4982566;28;20809;-71
2023/05/18 16:21:58;;;;;;;7.40;1.00;;;16.60;94.90;;;;;;4989176;28;20478;-71
2023/05/18 16:24:26;;;;;;;0.97;0.97;;;16.60;94.90;;;;;;4971242;28;20499;-71
2023/05/18 16:26:53;;;;;;;3.33;1.33;;;16.50;93.50;;;;;;4962162;28;20495;-71
2023/05/18 16:29:20;;;;;;;0.50;0.50;;;16.50;93.50;;;;;;4965091;28;20488;-72
2023/05/18 16:31:46;;;;;;;0.80;0.77;;;16.60;93.30;;;;;;4962014;28;20491;-72
2023/05/18 16:34:13;;;;;;;2.83;0.67;;;16.60;93.60;;;;;;4962564;28;20995;-70
2023/05/18 16:36:40;;;;;;;0.70;0.70;;;16.60;93.20;;;;;;4966648;28;20476;-70
2023/05/18 16:39:07;;;;;;;1.53;0.83;;;16.50;93.10;;;;;;4966603;28;20474;-70
2023/05/18 16:41:35;;;;;;;0.80;0.80;;;16.50;93.40;;;;;;4969881;28;20824;-71
2023/05/18 16:44:02;;;;;;;0.70;0.70;;;16.50;93.70;;;;;;4960218;28;20493;-69
2023/05/18 16:46:28;;;;;;;1.43;1.13;;;16.30;93.30;;;;;;4959834;28;20571;-68
2023/05/18 16:48:55;;;;;;;0.67;0.60;;;16.20;93.40;;;;;;4960384;28;20492;-68
2023/05/18 16:51:22;;;;;;;0.80;0.80;;;16.10;94.00;;;;;;4961946;28;20944;-70
2023/05/18 16:53:49;;;;;;;0.63;0.63;;;16.00;93.70;;;;;;4966237;28;20578;-69